sensor_id;sensor_type;location;lat;lon;timestamp;P1;durP1;ratioP1;P2;durP2;ratioP2
21206;SDS011;10761;48.532;8.026;2024-03-23T00:55:32;2.72;;;1.70;;
21206;SDS011;10761;48.532;8.026;2024-03-23T00:57:57;5.30;;;1.65;;
21206;SDS011;10761;48.532;8.026;2024-03-23T01:00:23;4.18;;;2.10;;
21206;SDS011;10761;48.532;8.026;2024-03-23T01:02:48;4.43;;;1.67;;
21206;SDS011;10761;48.532;8.026;2024-03-23T01:05:14;5.60;;;1.90;;
21206;SDS011;10761;48.532;8.026;2024-03-23T01:07:39;5.57;;;1.80;;
21206;SDS011;10761;48.532;8.026;2024-03-23T01:10:05;2.42;;;1.50;;
21206;SDS011;10761;48.532;8.026;2024-03-23T01:12:31;2.47;;;1.65;;
21206;SDS011;10761;48.532;8.026;2024-03-23T01:14:56;3.13;;;1.80;;
21206;SDS011;10761;48.532;8.026;2024-03-23T01:17:22;3.67;;;1.48;;
21206;SDS011;10761;48.532;8.026;2024-03-23T01:19:47;5.05;;;1.60;;
21206;SDS011;10761;48.532;8.026;2024-03-23T01:22:13;5.35;;;1.88;;
21206;SDS011;10761;48.532;8.026;2024-03-23T01:24:38;3.63;;;1.73;;
21206;SDS011;10761;48.532;8.026;2024-03-23T01:27:04;4.00;;;2.00;;
21206;SDS011;10761;48.532;8.026;2024-03-23T01:29:30;3.03;;;1.67;;
21206;SDS011;10761;48.532;8.026;2024-03-23T01:31:55;2.47;;;1.73;;
21206;SDS011;10761;48.532;8.026;2024-03-23T01:34:21;4.32;;;2.17;;
21206;SDS011;10761;48.532;8.026;2024-03-23T01:36:46;5.07;;;2.15;;
21206;SDS011;10761;48.532;8.026;2024-03-23T01:39:12;3.17;;;2.20;;
21206;SDS011;10761;48.532;8.026;2024-03-23T01:41:39;5.38;;;2.50;;
21206;SDS011;10761;48.532;8.026;2024-03-23T01:44:07;5.05;;;2.20;;
21206;SDS011;10761;48.532;8.026;2024-03-23T01:46:33;3.78;;;2.28;;
21206;SDS011;10761;48.532;8.026;2024-03-23T01:49:00;5.20;;;2.00;;
21206;SDS011;10761;48.532;8.026;2024-03-23T01:51:26;3.05;;;2.28;;
21206;SDS011;10761;48.532;8.026;2024-03-23T01:53:52;4.10;;;2.38;;
21206;SDS011;10761;48.532;8.026;2024-03-23T01:56:19;6.03;;;2.60;;
21206;SDS011;10761;48.532;8.026;2024-03-23T01:58:45;4.10;;;2.45;;
21206;SDS011;10761;48.532;8.026;2024-03-23T02:01:11;3.97;;;1.92;;
21206;SDS011;10761;48.532;8.026;2024-03-23T02:03:36;5.20;;;2.50;;
21206;SDS011;10761;48.532;8.026;2024-03-23T02:06:02;4.50;;;2.30;;
21206;SDS011;10761;48.532;8.026;2024-03-23T02:08:28;3.08;;;2.13;;
21206;SDS011;10761;48.532;8.026;2024-03-23T02:10:55;4.32;;;2.13;;
21206;SDS011;10761;48.532;8.026;2024-03-23T02:13:21;4.72;;;2.40;;
21206;SDS011;10761;48.532;8.026;2024-03-23T02:15:47;5.43;;;2.13;;
21206;SDS011;10761;48.532;8.026;2024-03-23T02:18:13;5.60;;;2.28;;
21206;SDS011;10761;48.532;8.026;2024-03-23T02:20:38;3.33;;;2.28;;
21206;SDS011;10761;48.532;8.026;2024-03-23T02:23:04;4.22;;;2.00;;
21206;SDS011;10761;48.532;8.026;2024-03-23T02:25:33;8.52;;;2.58;;
21206;SDS011;10761;48.532;8.026;2024-03-23T02:27:59;3.67;;;2.03;;
21206;SDS011;10761;48.532;8.026;2024-03-23T02:30:25;5.30;;;2.35;;
21206;SDS011;10761;48.532;8.026;2024-03-23T02:32:51;5.28;;;2.50;;
21206;SDS011;10761;48.532;8.026;2024-03-23T02:35:17;4.80;;;2.50;;
21206;SDS011;10761;48.532;8.026;2024-03-23T02:37:42;2.58;;;2.13;;
21206;SDS011;10761;48.532;8.026;2024-03-23T02:40:08;5.07;;;2.50;;
21206;SDS011;10761;48.532;8.026;2024-03-23T02:42:34;3.30;;;2.30;;
21206;SDS011;10761;48.532;8.026;2024-03-23T02:44:59;3.25;;;2.40;;
21206;SDS011;10761;48.532;8.026;2024-03-23T02:47:24;3.08;;;2.47;;
21206;SDS011;10761;48.532;8.026;2024-03-23T02:49:50;3.60;;;1.92;;
21206;SDS011;10761;48.532;8.026;2024-03-23T02:52:16;5.03;;;1.92;;
21206;SDS011;10761;48.532;8.026;2024-03-23T02:54:41;3.08;;;2.17;;
21206;SDS011;10761;48.532;8.026;2024-03-23T02:57:10;2.53;;;1.90;;
21206;SDS011;10761;48.532;8.026;2024-03-23T02:59:36;5.55;;;2.15;;
21206;SDS011;10761;48.532;8.026;2024-03-23T03:02:02;6.57;;;2.22;;
21206;SDS011;10761;48.532;8.026;2024-03-23T03:04:29;4.22;;;2.17;;
21206;SDS011;10761;48.532;8.026;2024-03-23T03:06:55;7.30;;;2.10;;
21206;SDS011;10761;48.532;8.026;2024-03-23T03:09:21;2.83;;;2.42;;
21206;SDS011;10761;48.532;8.026;2024-03-23T03:11:46;4.53;;;2.30;;
21206;SDS011;10761;48.532;8.026;2024-03-23T03:14:12;3.08;;;2.00;;
21206;SDS011;10761;48.532;8.026;2024-03-23T03:16:37;3.63;;;1.92;;
21206;SDS011;10761;48.532;8.026;2024-03-23T03:19:03;10.48;;;2.38;;
21206;SDS011;10761;48.532;8.026;2024-03-23T03:21:29;3.15;;;2.08;;
21206;SDS011;10761;48.532;8.026;2024-03-23T03:23:54;4.30;;;2.45;;
21206;SDS011;10761;48.532;8.026;2024-03-23T03:26:21;5.53;;;2.40;;
21206;SDS011;10761;48.532;8.026;2024-03-23T03:28:47;3.17;;;1.98;;
21206;SDS011;10761;48.532;8.026;2024-03-23T03:31:14;4.28;;;2.60;;
21206;SDS011;10761;48.532;8.026;2024-03-23T03:33:40;3.58;;;2.35;;
21206;SDS011;10761;48.532;8.026;2024-03-23T03:36:05;3.05;;;2.30;;
21206;SDS011;10761;48.532;8.026;2024-03-23T03:38:31;4.28;;;2.83;;
21206;SDS011;10761;48.532;8.026;2024-03-23T03:40:57;4.13;;;2.95;;
21206;SDS011;10761;48.532;8.026;2024-03-23T03:43:23;4.00;;;2.80;;
21206;SDS011;10761;48.532;8.026;2024-03-23T03:46:07;7.20;;;2.95;;
21206;SDS011;10761;48.532;8.026;2024-03-23T03:48:33;3.25;;;2.78;;
21206;SDS011;10761;48.532;8.026;2024-03-23T03:50:59;5.15;;;2.80;;
21206;SDS011;10761;48.532;8.026;2024-03-23T03:53:24;4.82;;;3.38;;
21206;SDS011;10761;48.532;8.026;2024-03-23T03:55:50;6.65;;;3.63;;
21206;SDS011;10761;48.532;8.026;2024-03-23T03:58:15;4.97;;;3.50;;
21206;SDS011;10761;48.532;8.026;2024-03-23T04:00:41;5.43;;;3.50;;
21206;SDS011;10761;48.532;8.026;2024-03-23T04:03:06;5.45;;;3.35;;
21206;SDS011;10761;48.532;8.026;2024-03-23T04:05:32;4.85;;;4.20;;
21206;SDS011;10761;48.532;8.026;2024-03-23T04:07:57;8.85;;;4.88;;
21206;SDS011;10761;48.532;8.026;2024-03-23T04:10:23;8.18;;;5.45;;
21206;SDS011;10761;48.532;8.026;2024-03-23T04:12:49;12.10;;;6.35;;
21206;SDS011;10761;48.532;8.026;2024-03-23T04:15:15;9.85;;;6.93;;
21206;SDS011;10761;48.532;8.026;2024-03-23T04:17:41;11.50;;;8.52;;
21206;SDS011;10761;48.532;8.026;2024-03-23T04:20:07;11.20;;;8.23;;
21206;SDS011;10761;48.532;8.026;2024-03-23T04:22:36;14.38;;;9.48;;
21206;SDS011;10761;48.532;8.026;2024-03-23T04:25:02;19.77;;;11.70;;
21206;SDS011;10761;48.532;8.026;2024-03-23T04:27:31;15.27;;;12.27;;
21206;SDS011;10761;48.532;8.026;2024-03-23T04:30:01;20.23;;;13.27;;
21206;SDS011;10761;48.532;8.026;2024-03-23T04:32:28;19.92;;;15.15;;
21206;SDS011;10761;48.532;8.026;2024-03-23T04:34:54;23.60;;;16.42;;
21206;SDS011;10761;48.532;8.026;2024-03-23T04:37:20;25.70;;;17.75;;
21206;SDS011;10761;48.532;8.026;2024-03-23T04:39:46;23.25;;;17.35;;
21206;SDS011;10761;48.532;8.026;2024-03-23T04:42:11;20.08;;;17.10;;
21206;SDS011;10761;48.532;8.026;2024-03-23T04:44:40;25.95;;;17.63;;
21206;SDS011;10761;48.532;8.026;2024-03-23T04:47:05;20.42;;;16.65;;
21206;SDS011;10761;48.532;8.026;2024-03-23T04:49:31;21.63;;;16.73;;
21206;SDS011;10761;48.532;8.026;2024-03-23T04:51:56;22.80;;;16.45;;
21206;SDS011;10761;48.532;8.026;2024-03-23T04:54:22;18.27;;;15.95;;
21206;SDS011;10761;48.532;8.026;2024-03-23T04:56:47;20.95;;;15.57;;
21206;SDS011;10761;48.532;8.026;2024-03-23T04:59:13;18.45;;;14.82;;
21206;SDS011;10761;48.532;8.026;2024-03-23T05:01:38;16.48;;;13.45;;
21206;SDS011;10761;48.532;8.026;2024-03-23T05:04:06;18.88;;;14.30;;
21206;SDS011;10761;48.532;8.026;2024-03-23T05:06:33;16.52;;;13.68;;
21206;SDS011;10761;48.532;8.026;2024-03-23T05:08:59;19.83;;;14.25;;
21206;SDS011;10761;48.532;8.026;2024-03-23T05:11:26;15.80;;;13.40;;
21206;SDS011;10761;48.532;8.026;2024-03-23T05:13:52;14.60;;;11.30;;
21206;SDS011;10761;48.532;8.026;2024-03-23T05:16:18;12.23;;;9.55;;
21206;SDS011;10761;48.532;8.026;2024-03-23T05:18:43;8.48;;;6.93;;
21206;SDS011;10761;48.532;8.026;2024-03-23T05:21:09;8.63;;;6.25;;
21206;SDS011;10761;48.532;8.026;2024-03-23T05:23:34;6.78;;;5.68;;
21206;SDS011;10761;48.532;8.026;2024-03-23T05:26:00;8.43;;;5.68;;
21206;SDS011;10761;48.532;8.026;2024-03-23T05:28:26;6.53;;;4.82;;
21206;SDS011;10761;48.532;8.026;2024-03-23T05:30:52;5.75;;;4.93;;
21206;SDS011;10761;48.532;8.026;2024-03-23T05:33:18;4.55;;;3.58;;
21206;SDS011;10761;48.532;8.026;2024-03-23T05:35:44;5.78;;;2.78;;
21206;SDS011;10761;48.532;8.026;2024-03-23T05:38:10;2.78;;;2.25;;
21206;SDS011;10761;48.532;8.026;2024-03-23T05:40:35;1.98;;;1.77;;
21206;SDS011;10761;48.532;8.026;2024-03-23T05:43:02;1.98;;;1.42;;
21206;SDS011;10761;48.532;8.026;2024-03-23T05:45:28;1.60;;;1.35;;
21206;SDS011;10761;48.532;8.026;2024-03-23T05:47:54;1.10;;;1.00;;
21206;SDS011;10761;48.532;8.026;2024-03-23T05:50:21;1.42;;;1.10;;
21206;SDS011;10761;48.532;8.026;2024-03-23T05:52:47;1.65;;;0.93;;
21206;SDS011;10761;48.532;8.026;2024-03-23T05:55:14;1.10;;;0.88;;
21206;SDS011;10761;48.532;8.026;2024-03-23T05:57:39;1.50;;;0.95;;
21206;SDS011;10761;48.532;8.026;2024-03-23T06:00:05;0.90;;;0.75;;
21206;SDS011;10761;48.532;8.026;2024-03-23T06:02:35;4.13;;;0.70;;
21206;SDS011;10761;48.532;8.026;2024-03-23T06:05:01;0.60;;;0.57;;
21206;SDS011;10761;48.532;8.026;2024-03-23T06:07:27;0.70;;;0.70;;
21206;SDS011;10761;48.532;8.026;2024-03-23T06:09:52;0.60;;;0.60;;
21206;SDS011;10761;48.532;8.026;2024-03-23T06:12:18;1.10;;;0.50;;
21206;SDS011;10761;48.532;8.026;2024-03-23T06:14:43;0.82;;;0.40;;
21206;SDS011;10761;48.532;8.026;2024-03-23T06:17:09;0.50;;;0.40;;
21206;SDS011;10761;48.532;8.026;2024-03-23T06:19:34;0.75;;;0.50;;
21206;SDS011;10761;48.532;8.026;2024-03-23T06:22:00;1.08;;;0.40;;
21206;SDS011;10761;48.532;8.026;2024-03-23T06:24:25;0.20;;;0.20;;
21206;SDS011;10761;48.532;8.026;2024-03-23T06:26:51;0.82;;;0.30;;
21206;SDS011;10761;48.532;8.026;2024-03-23T06:29:16;0.80;;;0.30;;
21206;SDS011;10761;48.532;8.026;2024-03-23T06:31:42;0.35;;;0.30;;
21206;SDS011;10761;48.532;8.026;2024-03-23T06:34:07;0.47;;;0.47;;
21206;SDS011;10761;48.532;8.026;2024-03-23T06:36:33;1.38;;;0.60;;
21206;SDS011;10761;48.532;8.026;2024-03-23T06:38:59;0.50;;;0.50;;
21206;SDS011;10761;48.532;8.026;2024-03-23T06:41:24;0.70;;;0.30;;
21206;SDS011;10761;48.532;8.026;2024-03-23T06:43:51;2.42;;;0.52;;
21206;SDS011;10761;48.532;8.026;2024-03-23T06:46:16;0.25;;;0.25;;
21206;SDS011;10761;48.532;8.026;2024-03-23T06:48:42;0.82;;;0.40;;
21206;SDS011;10761;48.532;8.026;2024-03-23T06:51:10;1.00;;;0.20;;
21206;SDS011;10761;48.532;8.026;2024-03-23T06:53:36;0.22;;;0.22;;
21206;SDS011;10761;48.532;8.026;2024-03-23T06:56:01;0.75;;;0.30;;
21206;SDS011;10761;48.532;8.026;2024-03-23T06:58:27;1.75;;;0.40;;
21206;SDS011;10761;48.532;8.026;2024-03-23T07:00:53;0.55;;;0.52;;
21206;SDS011;10761;48.532;8.026;2024-03-23T07:03:18;0.90;;;0.70;;
21206;SDS011;10761;48.532;8.026;2024-03-23T07:05:44;1.17;;;0.80;;
21206;SDS011;10761;48.532;8.026;2024-03-23T07:08:11;1.38;;;0.93;;
21206;SDS011;10761;48.532;8.026;2024-03-23T07:10:39;1.95;;;0.95;;
21206;SDS011;10761;48.532;8.026;2024-03-23T07:13:05;0.82;;;0.70;;
21206;SDS011;10761;48.532;8.026;2024-03-23T07:15:30;1.70;;;0.60;;
21206;SDS011;10761;48.532;8.026;2024-03-23T07:17:56;0.85;;;0.80;;
21206;SDS011;10761;48.532;8.026;2024-03-23T07:20:21;1.30;;;0.95;;
21206;SDS011;10761;48.532;8.026;2024-03-23T07:22:47;2.92;;;1.13;;
21206;SDS011;10761;48.532;8.026;2024-03-23T07:25:12;4.57;;;1.30;;
21206;SDS011;10761;48.532;8.026;2024-03-23T07:27:38;2.50;;;1.00;;
21206;SDS011;10761;48.532;8.026;2024-03-23T07:30:05;3.45;;;1.45;;
21206;SDS011;10761;48.532;8.026;2024-03-23T07:32:31;1.55;;;1.20;;
21206;SDS011;10761;48.532;8.026;2024-03-23T07:34:57;1.42;;;1.20;;
21206;SDS011;10761;48.532;8.026;2024-03-23T07:37:22;2.90;;;1.95;;
21206;SDS011;10761;48.532;8.026;2024-03-23T07:39:48;5.97;;;2.22;;
21206;SDS011;10761;48.532;8.026;2024-03-23T07:42:13;5.60;;;2.47;;
21206;SDS011;10761;48.532;8.026;2024-03-23T07:44:39;4.40;;;2.15;;
21206;SDS011;10761;48.532;8.026;2024-03-23T07:47:05;6.22;;;2.97;;
21206;SDS011;10761;48.532;8.026;2024-03-23T07:49:30;5.07;;;2.95;;
21206;SDS011;10761;48.532;8.026;2024-03-23T07:51:56;4.32;;;2.42;;
21206;SDS011;10761;48.532;8.026;2024-03-23T07:54:21;8.73;;;3.28;;
21206;SDS011;10761;48.532;8.026;2024-03-23T07:56:47;6.85;;;2.85;;
21206;SDS011;10761;48.532;8.026;2024-03-23T07:59:12;6.00;;;3.20;;
21206;SDS011;10761;48.532;8.026;2024-03-23T08:01:38;8.65;;;3.15;;
21206;SDS011;10761;48.532;8.026;2024-03-23T08:04:04;5.85;;;2.90;;
21206;SDS011;10761;48.532;8.026;2024-03-23T08:06:31;7.35;;;3.08;;
21206;SDS011;10761;48.532;8.026;2024-03-23T08:08:57;6.43;;;3.35;;
21206;SDS011;10761;48.532;8.026;2024-03-23T08:11:26;7.00;;;2.70;;
21206;SDS011;10761;48.532;8.026;2024-03-23T08:13:52;5.00;;;2.70;;
21206;SDS011;10761;48.532;8.026;2024-03-23T08:16:18;4.68;;;2.47;;
21206;SDS011;10761;48.532;8.026;2024-03-23T08:18:43;7.07;;;2.75;;
21206;SDS011;10761;48.532;8.026;2024-03-23T08:21:09;7.43;;;2.90;;
21206;SDS011;10761;48.532;8.026;2024-03-23T08:23:35;7.10;;;3.22;;
21206;SDS011;10761;48.532;8.026;2024-03-23T08:26:05;7.70;;;3.55;;
21206;SDS011;10761;48.532;8.026;2024-03-23T08:28:32;11.68;;;4.20;;
21206;SDS011;10761;48.532;8.026;2024-03-23T08:31:00;11.95;;;4.20;;
21206;SDS011;10761;48.532;8.026;2024-03-23T08:33:27;10.75;;;4.22;;
21206;SDS011;10761;48.532;8.026;2024-03-23T08:35:57;11.60;;;4.20;;
21206;SDS011;10761;48.532;8.026;2024-03-23T08:38:27;12.15;;;4.43;;
21206;SDS011;10761;48.532;8.026;2024-03-23T08:40:56;12.48;;;3.58;;
21206;SDS011;10761;48.532;8.026;2024-03-23T08:43:22;15.15;;;3.95;;
21206;SDS011;10761;48.532;8.026;2024-03-23T08:45:48;13.48;;;4.15;;
21206;SDS011;10761;48.532;8.026;2024-03-23T08:48:14;12.35;;;4.43;;
21206;SDS011;10761;48.532;8.026;2024-03-23T08:50:39;10.68;;;4.28;;
21206;SDS011;10761;48.532;8.026;2024-03-23T08:53:05;13.13;;;4.13;;
21206;SDS011;10761;48.532;8.026;2024-03-23T08:55:30;15.63;;;4.55;;
21206;SDS011;10761;48.532;8.026;2024-03-23T08:57:56;11.32;;;4.10;;
21206;SDS011;10761;48.532;8.026;2024-03-23T09:00:21;12.20;;;4.63;;
21206;SDS011;10761;48.532;8.026;2024-03-23T09:02:47;13.27;;;4.38;;
21206;SDS011;10761;48.532;8.026;2024-03-23T09:05:13;9.23;;;3.72;;
21206;SDS011;10761;48.532;8.026;2024-03-23T09:07:39;13.55;;;3.72;;
21206;SDS011;10761;48.532;8.026;2024-03-23T09:10:04;14.85;;;4.28;;
21206;SDS011;10761;48.532;8.026;2024-03-23T09:12:30;9.88;;;3.53;;
21206;SDS011;10761;48.532;8.026;2024-03-23T09:14:56;12.35;;;4.05;;
21206;SDS011;10761;48.532;8.026;2024-03-23T09:17:21;11.18;;;4.45;;
21206;SDS011;10761;48.532;8.026;2024-03-23T09:19:47;11.00;;;4.22;;
21206;SDS011;10761;48.532;8.026;2024-03-23T09:22:12;13.13;;;3.97;;
21206;SDS011;10761;48.532;8.026;2024-03-23T09:24:38;11.38;;;4.18;;
21206;SDS011;10761;48.532;8.026;2024-03-23T09:27:04;10.85;;;3.42;;
21206;SDS011;10761;48.532;8.026;2024-03-23T09:29:30;11.05;;;3.50;;
21206;SDS011;10761;48.532;8.026;2024-03-23T09:31:55;11.73;;;3.63;;
21206;SDS011;10761;48.532;8.026;2024-03-23T09:34:21;13.88;;;4.22;;
21206;SDS011;10761;48.532;8.026;2024-03-23T09:36:47;11.43;;;4.00;;
21206;SDS011;10761;48.532;8.026;2024-03-23T09:39:15;11.00;;;3.85;;
21206;SDS011;10761;48.532;8.026;2024-03-23T09:41:40;17.80;;;4.60;;
21206;SDS011;10761;48.532;8.026;2024-03-23T09:44:06;11.73;;;3.50;;
21206;SDS011;10761;48.532;8.026;2024-03-23T09:46:32;9.30;;;3.35;;
21206;SDS011;10761;48.532;8.026;2024-03-23T09:48:59;3.78;;;1.33;;
21206;SDS011;10761;48.532;8.026;2024-03-23T09:51:25;4.70;;;1.50;;
21206;SDS011;10761;48.532;8.026;2024-03-23T09:53:51;6.43;;;1.63;;
21206;SDS011;10761;48.532;8.026;2024-03-23T09:56:17;4.95;;;1.85;;
21206;SDS011;10761;48.532;8.026;2024-03-23T09:58:43;4.57;;;1.67;;
21206;SDS011;10761;48.532;8.026;2024-03-23T10:01:08;7.55;;;2.05;;
21206;SDS011;10761;48.532;8.026;2024-03-23T10:03:44;7.07;;;2.40;;
21206;SDS011;10761;48.532;8.026;2024-03-23T10:06:11;5.85;;;2.08;;
21206;SDS011;10761;48.532;8.026;2024-03-23T10:08:36;6.60;;;2.20;;
21206;SDS011;10761;48.532;8.026;2024-03-23T10:11:12;7.75;;;2.13;;
21206;SDS011;10761;48.532;8.026;2024-03-23T10:13:41;7.32;;;2.35;;
21206;SDS011;10761;48.532;8.026;2024-03-23T10:16:08;6.57;;;2.97;;
21206;SDS011;10761;48.532;8.026;2024-03-23T10:18:38;8.00;;;2.80;;
21206;SDS011;10761;48.532;8.026;2024-03-23T10:23:36;10.43;;;2.67;;
21206;SDS011;10761;48.532;8.026;2024-03-23T10:26:12;9.50;;;2.80;;
21206;SDS011;10761;48.532;8.026;2024-03-23T10:28:50;10.52;;;2.78;;
21206;SDS011;10761;48.532;8.026;2024-03-23T10:31:33;8.00;;;2.88;;
21206;SDS011;10761;48.532;8.026;2024-03-23T10:34:02;8.15;;;3.35;;
21206;SDS011;10761;48.532;8.026;2024-03-23T10:36:28;5.03;;;3.00;;
21206;SDS011;10761;48.532;8.026;2024-03-23T10:38:55;11.52;;;3.80;;
21206;SDS011;10761;48.532;8.026;2024-03-23T10:41:23;11.48;;;3.28;;
21206;SDS011;10761;48.532;8.026;2024-03-23T10:43:53;9.82;;;2.60;;
21206;SDS011;10761;48.532;8.026;2024-03-23T10:46:20;8.25;;;2.47;;
21206;SDS011;10761;48.532;8.026;2024-03-23T10:48:48;8.13;;;2.75;;
21206;SDS011;10761;48.532;8.026;2024-03-23T10:51:14;12.50;;;2.50;;
21206;SDS011;10761;48.532;8.026;2024-03-23T10:53:40;6.60;;;2.28;;
21206;SDS011;10761;48.532;8.026;2024-03-23T10:56:05;6.50;;;2.20;;
21206;SDS011;10761;48.532;8.026;2024-03-23T10:58:34;8.57;;;2.30;;
21206;SDS011;10761;48.532;8.026;2024-03-23T11:01:11;3.63;;;1.65;;
21206;SDS011;10761;48.532;8.026;2024-03-23T11:03:37;7.78;;;2.22;;
21206;SDS011;10761;48.532;8.026;2024-03-23T11:06:05;7.45;;;2.33;;
21206;SDS011;10761;48.532;8.026;2024-03-23T11:08:34;5.95;;;2.10;;
21206;SDS011;10761;48.532;8.026;2024-03-23T11:13:42;4.00;;;1.50;;
21206;SDS011;10761;48.532;8.026;2024-03-23T11:18:52;4.45;;;1.48;;
21206;SDS011;10761;48.532;8.026;2024-03-23T11:21:51;5.43;;;1.70;;
21206;SDS011;10761;48.532;8.026;2024-03-23T11:24:17;5.55;;;1.40;;
21206;SDS011;10761;48.532;8.026;2024-03-23T11:26:43;4.47;;;1.52;;
21206;SDS011;10761;48.532;8.026;2024-03-23T11:29:13;3.45;;;1.45;;
21206;SDS011;10761;48.532;8.026;2024-03-23T11:31:45;5.45;;;1.40;;
21206;SDS011;10761;48.532;8.026;2024-03-23T11:34:15;2.83;;;1.40;;
21206;SDS011;10761;48.532;8.026;2024-03-23T11:36:42;2.72;;;1.00;;
21206;SDS011;10761;48.532;8.026;2024-03-23T11:39:14;5.32;;;1.33;;
21206;SDS011;10761;48.532;8.026;2024-03-23T11:41:48;3.88;;;1.00;;
21206;SDS011;10761;48.532;8.026;2024-03-23T11:44:15;4.15;;;1.50;;
21206;SDS011;10761;48.532;8.026;2024-03-23T11:46:42;4.78;;;1.52;;
21206;SDS011;10761;48.532;8.026;2024-03-23T11:49:19;3.03;;;1.55;;
21206;SDS011;10761;48.532;8.026;2024-03-23T11:51:46;5.53;;;1.52;;
21206;SDS011;10761;48.532;8.026;2024-03-23T11:54:13;3.13;;;1.65;;
21206;SDS011;10761;48.532;8.026;2024-03-23T11:56:38;4.32;;;1.60;;
21206;SDS011;10761;48.532;8.026;2024-03-23T11:59:04;6.15;;;1.27;;
21206;SDS011;10761;48.532;8.026;2024-03-23T12:01:31;4.57;;;1.70;;
21206;SDS011;10761;48.532;8.026;2024-03-23T12:03:56;6.53;;;2.13;;
21206;SDS011;10761;48.532;8.026;2024-03-23T12:06:22;7.10;;;1.95;;
21206;SDS011;10761;48.532;8.026;2024-03-23T12:08:47;5.95;;;2.13;;
21206;SDS011;10761;48.532;8.026;2024-03-23T12:11:15;3.53;;;1.65;;
21206;SDS011;10761;48.532;8.026;2024-03-23T12:13:41;5.97;;;2.13;;
21206;SDS011;10761;48.532;8.026;2024-03-23T12:16:10;7.50;;;2.20;;
21206;SDS011;10761;48.532;8.026;2024-03-23T12:18:37;6.95;;;2.20;;
21206;SDS011;10761;48.532;8.026;2024-03-23T12:21:05;5.97;;;2.03;;
21206;SDS011;10761;48.532;8.026;2024-03-23T12:23:31;5.22;;;1.50;;
21206;SDS011;10761;48.532;8.026;2024-03-23T12:25:57;7.05;;;2.20;;
21206;SDS011;10761;48.532;8.026;2024-03-23T12:28:22;4.07;;;1.77;;
21206;SDS011;10761;48.532;8.026;2024-03-23T12:30:48;5.07;;;2.08;;
21206;SDS011;10761;48.532;8.026;2024-03-23T12:33:14;6.40;;;2.03;;
21206;SDS011;10761;48.532;8.026;2024-03-23T12:35:39;5.07;;;1.98;;
21206;SDS011;10761;48.532;8.026;2024-03-23T12:38:05;7.63;;;1.90;;
21206;SDS011;10761;48.532;8.026;2024-03-23T12:40:30;10.63;;;2.03;;
21206;SDS011;10761;48.532;8.026;2024-03-23T12:42:56;5.78;;;1.95;;
21206;SDS011;10761;48.532;8.026;2024-03-23T12:45:22;5.18;;;1.90;;
21206;SDS011;10761;48.532;8.026;2024-03-23T12:47:47;4.57;;;1.77;;
21206;SDS011;10761;48.532;8.026;2024-03-23T12:50:13;4.28;;;1.75;;
21206;SDS011;10761;48.532;8.026;2024-03-23T12:52:38;6.10;;;1.80;;
21206;SDS011;10761;48.532;8.026;2024-03-23T12:55:04;6.90;;;2.10;;
21206;SDS011;10761;48.532;8.026;2024-03-23T12:57:32;4.85;;;1.05;;
21206;SDS011;10761;48.532;8.026;2024-03-23T12:59:58;5.85;;;0.80;;
21206;SDS011;10761;48.532;8.026;2024-03-23T13:02:24;4.47;;;1.10;;
21206;SDS011;10761;48.532;8.026;2024-03-23T13:04:49;4.00;;;0.60;;
21206;SDS011;10761;48.532;8.026;2024-03-23T13:07:16;3.60;;;0.80;;
21206;SDS011;10761;48.532;8.026;2024-03-23T13:09:42;1.63;;;0.75;;
21206;SDS011;10761;48.532;8.026;2024-03-23T13:12:08;2.13;;;0.70;;
21206;SDS011;10761;48.532;8.026;2024-03-23T13:14:34;2.38;;;0.70;;
21206;SDS011;10761;48.532;8.026;2024-03-23T13:17:00;2.83;;;1.20;;
21206;SDS011;10761;48.532;8.026;2024-03-23T13:19:27;3.40;;;1.55;;
21206;SDS011;10761;48.532;8.026;2024-03-23T13:21:55;4.55;;;1.10;;
21206;SDS011;10761;48.532;8.026;2024-03-23T13:24:22;7.07;;;1.40;;
21206;SDS011;10761;48.532;8.026;2024-03-23T13:26:49;3.17;;;1.20;;
21206;SDS011;10761;48.532;8.026;2024-03-23T13:29:15;3.17;;;1.30;;
21206;SDS011;10761;48.532;8.026;2024-03-23T13:31:41;3.42;;;1.00;;
21206;SDS011;10761;48.532;8.026;2024-03-23T13:34:07;2.75;;;1.20;;
21206;SDS011;10761;48.532;8.026;2024-03-23T13:36:32;4.22;;;1.27;;
21206;SDS011;10761;48.532;8.026;2024-03-23T13:38:58;3.58;;;0.90;;
21206;SDS011;10761;48.532;8.026;2024-03-23T13:41:24;5.55;;;1.25;;
21206;SDS011;10761;48.532;8.026;2024-03-23T13:43:49;6.50;;;1.27;;
21206;SDS011;10761;48.532;8.026;2024-03-23T13:46:15;9.43;;;1.50;;
21206;SDS011;10761;48.532;8.026;2024-03-23T13:48:41;7.30;;;1.38;;
21206;SDS011;10761;48.532;8.026;2024-03-23T13:51:07;7.80;;;1.30;;
21206;SDS011;10761;48.532;8.026;2024-03-23T13:53:33;4.60;;;1.40;;
21206;SDS011;10761;48.532;8.026;2024-03-23T13:55:58;2.60;;;0.85;;
21206;SDS011;10761;48.532;8.026;2024-03-23T13:58:24;5.07;;;1.38;;
21206;SDS011;10761;48.532;8.026;2024-03-23T14:00:52;4.20;;;1.17;;
21206;SDS011;10761;48.532;8.026;2024-03-23T14:03:18;3.65;;;1.20;;
21206;SDS011;10761;48.532;8.026;2024-03-23T14:05:44;4.38;;;1.20;;
21206;SDS011;10761;48.532;8.026;2024-03-23T14:08:12;3.22;;;1.08;;
21206;SDS011;10761;48.532;8.026;2024-03-23T14:10:40;3.65;;;0.90;;
21206;SDS011;10761;48.532;8.026;2024-03-23T14:13:06;6.53;;;1.15;;
21206;SDS011;10761;48.532;8.026;2024-03-23T14:15:32;4.18;;;0.80;;
21206;SDS011;10761;48.532;8.026;2024-03-23T14:17:58;5.60;;;1.27;;
21206;SDS011;10761;48.532;8.026;2024-03-23T14:20:24;4.65;;;1.10;;
21206;SDS011;10761;48.532;8.026;2024-03-23T14:22:51;2.28;;;1.10;;
21206;SDS011;10761;48.532;8.026;2024-03-23T14:25:16;2.67;;;1.00;;
21206;SDS011;10761;48.532;8.026;2024-03-23T14:27:45;6.28;;;1.90;;
21206;SDS011;10761;48.532;8.026;2024-03-23T14:30:11;3.92;;;1.63;;
21206;SDS011;10761;48.532;8.026;2024-03-23T14:32:38;5.20;;;2.20;;
21206;SDS011;10761;48.532;8.026;2024-03-23T14:35:04;2.85;;;1.05;;
21206;SDS011;10761;48.532;8.026;2024-03-23T14:37:36;3.00;;;0.80;;
21206;SDS011;10761;48.532;8.026;2024-03-23T14:40:02;1.42;;;0.55;;
21206;SDS011;10761;48.532;8.026;2024-03-23T14:42:28;1.77;;;0.55;;
21206;SDS011;10761;48.532;8.026;2024-03-23T14:44:53;2.25;;;0.70;;
21206;SDS011;10761;48.532;8.026;2024-03-23T14:47:19;2.70;;;0.68;;
21206;SDS011;10761;48.532;8.026;2024-03-23T14:49:45;1.38;;;0.60;;
21206;SDS011;10761;48.532;8.026;2024-03-23T14:52:15;2.67;;;0.85;;
21206;SDS011;10761;48.532;8.026;2024-03-23T14:54:43;3.38;;;0.98;;
21206;SDS011;10761;48.532;8.026;2024-03-23T14:57:09;2.47;;;0.68;;
21206;SDS011;10761;48.532;8.026;2024-03-23T14:59:35;2.28;;;0.95;;
21206;SDS011;10761;48.532;8.026;2024-03-23T15:02:01;2.28;;;0.70;;
21206;SDS011;10761;48.532;8.026;2024-03-23T15:04:26;3.65;;;1.40;;
21206;SDS011;10761;48.532;8.026;2024-03-23T15:06:52;5.10;;;1.30;;
21206;SDS011;10761;48.532;8.026;2024-03-23T15:09:17;2.25;;;1.02;;
21206;SDS011;10761;48.532;8.026;2024-03-23T15:11:43;1.15;;;0.50;;
21206;SDS011;10761;48.532;8.026;2024-03-23T15:14:08;3.42;;;1.00;;
21206;SDS011;10761;48.532;8.026;2024-03-23T15:16:35;3.67;;;0.80;;
21206;SDS011;10761;48.532;8.026;2024-03-23T15:19:01;1.83;;;0.60;;
21206;SDS011;10761;48.532;8.026;2024-03-23T15:21:27;5.07;;;1.13;;
21206;SDS011;10761;48.532;8.026;2024-03-23T15:23:52;2.17;;;0.77;;
21206;SDS011;10761;48.532;8.026;2024-03-23T15:26:18;3.88;;;0.90;;
21206;SDS011;10761;48.532;8.026;2024-03-23T15:28:47;3.05;;;0.70;;
21206;SDS011;10761;48.532;8.026;2024-03-23T15:31:22;2.45;;;0.52;;
21206;SDS011;10761;48.532;8.026;2024-03-23T15:33:48;3.10;;;0.77;;
21206;SDS011;10761;48.532;8.026;2024-03-23T15:36:13;2.08;;;0.63;;
21206;SDS011;10761;48.532;8.026;2024-03-23T15:38:39;1.92;;;0.60;;
21206;SDS011;10761;48.532;8.026;2024-03-23T15:41:05;7.05;;;1.77;;
21206;SDS011;10761;48.532;8.026;2024-03-23T15:43:30;3.38;;;1.15;;